Etusivu
METAR-TAF:

METAR-TAF

Lentoasemat :

Holland, Michigan, Yhdysvallat

Leveyspiiri: 42-44-46N, Pituuspiiri: 086-05-48W, korkeus merenpinnasta: 209 m

Tämänhetkinen sää

Tämä raportti tehtiin 23 minuuttia sitten, kello 13.20 UTC
Tuuli 8 kn lännestä/luoteesta
Lämpötila 18°C
Kosteus 83%
Ilmanpaine 1014 hPa
Näkyvyys: 16.1 km
Hajanaisia pilviä 1900 ft:n korkeudessa
Hajonneita pilviä 2500 ft:n korkeudessa
Pilvistä 3500 ft:n korkeudessa

METAR: KBIV 231320Z AUTO 29008KT 10SM SCT019 BKN025 OVC035 18/15 A2994 RMK AO2 T01780150

Aika: 09:43 (13:43 UTC)


TAF: puuttuu

Säähavainnot ja -ennusteet yli 4000 lentoasemalta (METAR- ja TAF-raportit).

Käytössä olevat sääasemat on merkitty karttaan keltaisilla ja punaisilla pisteillä.

Aseta hiiri pisteen päälle nähdäksesi sääaseman nimen.

Klikkaa sitten nähdäksesi säähavainnot ja -ennusteet.

Kartan vaihtaminen: klikkaa mustalla rastilla varustettuja vihreitä pisteitä, niin voit zoomata sisään; viivalla varustettua vihreää pistettä, niin voit zoomata ulos tai vihreitä nuolia, niin pääset viereisille kartoille.


METAR-TAF: